Terminal Aerodrome Forecast
Issued by NWS

Home | Current Version | Previous Version | Text Only | Print | Product List | Glossary On
Versions: 1 2 3 4 5 6 7 8 9 10 11 12 13 14 15 16 17 18 19 20 21 22 23 24 25 26 27 28
000
FTUS44 KHGX 231739
TAFIAH
TAF
KIAH 231739Z 2318/2424 15011KT P6SM SKC
     FM232100 16011G18KT P6SM SKC
     FM240300 15008KT P6SM FEW010
     FM240700 17004KT 4SM BR SCT010
      TEMPO 2409/2412 2SM BR BKN005
     FM241500 25006KT P6SM SCT015
     FM241900 29008KT P6SM SKC=

USA.gov is the U.S. government's official web portal to all federal, state and local government web resources and services.